createdAt,value
2017-11-19T00:00:09.646Z,1007.46
2017-11-19T00:00:35.767Z,1007.41
2017-11-19T00:01:01.884Z,1007.44
2017-11-19T00:01:28.006Z,1007.37
2017-11-19T00:01:54.130Z,1007.4
2017-11-19T00:02:20.253Z,1007.38
2017-11-19T00:02:46.374Z,1007.38
2017-11-19T00:03:12.494Z,1007.36
2017-11-19T00:03:38.615Z,1007.37
2017-11-19T00:04:04.731Z,1007.34
2017-11-19T00:04:30.856Z,1007.35
2017-11-19T00:04:56.970Z,1007.31
2017-11-19T00:05:23.098Z,1007.31
2017-11-19T00:05:49.216Z,1007.34
2017-11-19T00:06:15.336Z,1007.31
2017-11-19T00:06:41.463Z,1007.31
2017-11-19T00:07:07.576Z,1007.33
2017-11-19T00:07:33.726Z,1007.35
2017-11-19T00:07:59.851Z,1007.33
2017-11-19T00:08:25.962Z,1007.35
2017-11-19T00:08:52.089Z,1007.34
2017-11-19T00:09:18.207Z,1007.36
2017-11-19T00:09:44.354Z,1007.36
2017-11-19T00:10:10.473Z,1007.39
2017-11-19T00:10:36.589Z,1007.4
2017-11-19T00:11:02.738Z,1007.45
2017-11-19T00:11:28.866Z,1007.37
2017-11-19T00:11:54.978Z,1007.44
2017-11-19T00:12:21.108Z,1007.43
2017-11-19T00:12:47.226Z,1007.43
2017-11-19T00:13:13.344Z,1007.47
2017-11-19T00:13:39.467Z,1007.46
2017-11-19T00:14:05.588Z,1007.46
2017-11-19T00:14:31.704Z,1007.47
2017-11-19T00:14:57.829Z,1007.5
2017-11-19T00:15:23.949Z,1007.5
2017-11-19T00:15:50.099Z,1007.49
2017-11-19T00:16:16.220Z,1007.52
2017-11-19T00:16:42.344Z,1007.51
2017-11-19T00:17:08.463Z,1007.47
2017-11-19T00:17:34.584Z,1007.49
2017-11-19T00:18:00.718Z,1007.46
2017-11-19T00:18:26.826Z,1007.49
2017-11-19T00:18:52.942Z,1007.51
2017-11-19T00:19:19.068Z,1007.52
2017-11-19T00:19:45.194Z,1007.53
2017-11-19T00:20:11.313Z,1007.52
2017-11-19T00:20:37.456Z,1007.54
2017-11-19T00:21:03.593Z,1007.52
2017-11-19T00:21:29.716Z,1007.49
2017-11-19T00:21:55.835Z,1007.57
2017-11-19T00:22:21.960Z,1007.48
2017-11-19T00:22:48.087Z,1007.49
2017-11-19T00:23:14.200Z,1007.54
2017-11-19T00:23:40.324Z,1007.57
2017-11-19T00:24:06.436Z,1007.55
2017-11-19T00:24:32.559Z,1007.55
2017-11-19T00:24:58.675Z,1007.53
2017-11-19T00:25:24.801Z,1007.54
2017-11-19T00:25:50.927Z,1007.54
2017-11-19T00:26:17.055Z,1007.54
2017-11-19T00:26:43.164Z,1007.51
2017-11-19T00:27:09.289Z,1007.52
2017-11-19T00:27:35.413Z,1007.47
2017-11-19T00:28:01.530Z,1007.53
2017-11-19T00:28:27.659Z,1007.5
2017-11-19T00:28:53.783Z,1007.49
2017-11-19T00:29:19.897Z,1007.51
2017-11-19T00:29:46.042Z,1007.51
2017-11-19T00:30:12.163Z,1007.49
2017-11-19T00:30:38.277Z,1007.49
2017-11-19T00:31:04.402Z,1007.52
2017-11-19T00:31:30.525Z,1007.47
2017-11-19T00:31:56.642Z,1007.5
2017-11-19T00:32:22.762Z,1007.51
2017-11-19T00:32:48.889Z,1007.45
2017-11-19T00:33:15.005Z,1007.49
2017-11-19T00:33:41.126Z,1007.45
2017-11-19T00:34:07.274Z,1007.44
2017-11-19T00:34:33.394Z,1007.47
2017-11-19T00:34:59.516Z,1007.42
2017-11-19T00:35:25.637Z,1007.42
2017-11-19T00:35:51.758Z,1007.48
2017-11-19T00:36:17.873Z,1007.43
2017-11-19T00:36:44.004Z,1007.41
2017-11-19T00:37:10.118Z,1007.42
2017-11-19T00:37:36.232Z,1007.38
2017-11-19T00:38:02.361Z,1007.41
2017-11-19T00:38:28.483Z,1007.42
2017-11-19T00:38:54.599Z,1007.4
2017-11-19T00:39:20.725Z,1007.39
2017-11-19T00:39:46.842Z,1007.33
2017-11-19T00:40:12.967Z,1007.33
2017-11-19T00:40:39.085Z,1007.35
2017-11-19T00:41:05.205Z,1007.34
2017-11-19T00:41:31.332Z,1007.32
2017-11-19T00:41:57.449Z,1007.31
2017-11-19T00:42:23.576Z,1007.24
2017-11-19T00:42:49.707Z,1007.25
2017-11-19T00:43:15.814Z,1007.3
2017-11-19T00:43:41.934Z,1007.33
2017-11-19T00:44:08.076Z,1007.3
2017-11-19T00:44:34.189Z,1007.3
2017-11-19T00:45:00.309Z,1007.31
2017-11-19T00:45:26.434Z,1007.28
2017-11-19T00:45:52.561Z,1007.3
2017-11-19T00:46:18.684Z,1007.31
2017-11-19T00:46:44.806Z,1007.26
2017-11-19T00:47:10.929Z,1007.3
2017-11-19T00:47:37.048Z,1007.26
2017-11-19T00:48:03.167Z,1007.21
2017-11-19T00:48:29.297Z,1007.24
2017-11-19T00:48:55.406Z,1007.2
2017-11-19T00:49:21.531Z,1007.21
2017-11-19T00:49:47.649Z,1007.22
2017-11-19T00:50:13.769Z,1007.23
2017-11-19T00:50:39.909Z,1007.2
2017-11-19T00:51:06.035Z,1007.24
2017-11-19T00:51:32.147Z,1007.22
2017-11-19T00:51:58.273Z,1007.21
2017-11-19T00:52:24.404Z,1007.19
2017-11-19T00:52:50.513Z,1007.22
2017-11-19T00:53:16.640Z,1007.21
2017-11-19T00:53:42.762Z,1007.23
2017-11-19T00:54:08.882Z,1007.19
2017-11-19T00:54:34.997Z,1007.22
2017-11-19T00:55:01.117Z,1007.2
2017-11-19T00:55:27.241Z,1007.22
2017-11-19T00:55:53.363Z,1007.21
2017-11-19T00:56:19.488Z,1007.14
2017-11-19T00:56:45.610Z,1007.17
2017-11-19T00:57:11.729Z,1007.2
2017-11-19T00:57:37.852Z,1007.14
2017-11-19T00:58:03.966Z,1007.13
2017-11-19T00:58:30.095Z,1007.13
2017-11-19T00:58:56.211Z,1007.13
2017-11-19T00:59:22.336Z,1007.18
2017-11-19T00:59:48.477Z,1007.12
2017-11-19T01:00:14.628Z,1007.15
2017-11-19T01:00:40.744Z,1007.08
2017-11-19T01:01:06.869Z,1007.14
2017-11-19T01:01:32.998Z,1007.1
2017-11-19T01:01:59.107Z,1007.14
2017-11-19T01:02:25.229Z,1007.1
2017-11-19T01:02:51.364Z,1007.12
2017-11-19T01:03:17.490Z,1007.1
2017-11-19T01:03:43.622Z,1007.06
2017-11-19T01:04:09.736Z,1007.09
2017-11-19T01:04:35.858Z,1007.11
2017-11-19T01:05:01.979Z,1007.1
2017-11-19T01:05:28.102Z,1007.09
2017-11-19T01:05:54.247Z,1007.11
2017-11-19T01:06:20.371Z,1007.13
2017-11-19T01:06:46.490Z,1007.12
2017-11-19T01:07:12.610Z,1007.11
2017-11-19T01:07:38.736Z,1007.04
2017-11-19T01:08:04.854Z,1007.05
2017-11-19T01:08:30.975Z,1007.06
2017-11-19T01:08:57.127Z,1006.99
2017-11-19T01:09:23.249Z,1007.06
2017-11-19T01:09:49.374Z,1007.05
2017-11-19T01:10:15.488Z,1007.05
2017-11-19T01:10:41.612Z,1007.07
2017-11-19T01:11:07.724Z,1007.06
2017-11-19T01:11:33.849Z,1007.05
2017-11-19T01:11:59.967Z,1007.06
2017-11-19T01:12:26.096Z,1007.08
2017-11-19T01:12:52.212Z,1007.08
2017-11-19T01:13:18.336Z,1007.1
2017-11-19T01:13:44.454Z,1007.03
2017-11-19T01:14:10.581Z,1007.04
2017-11-19T01:14:36.696Z,1007.05
2017-11-19T01:15:02.824Z,1007.05
2017-11-19T01:15:28.942Z,1006.99
2017-11-19T01:15:55.064Z,1007
2017-11-19T01:16:21.187Z,1007.03
2017-11-19T01:16:47.309Z,1007.01
2017-11-19T01:17:13.425Z,1007.03
2017-11-19T01:17:39.547Z,1006.99
2017-11-19T01:18:05.700Z,1007.05
2017-11-19T01:18:31.809Z,1006.98
2017-11-19T01:18:57.931Z,1007.02
2017-11-19T01:19:24.052Z,1007.01
2017-11-19T01:19:50.181Z,1007
2017-11-19T01:20:16.303Z,1006.95
2017-11-19T01:20:42.416Z,1006.94
2017-11-19T01:21:08.542Z,1006.94
2017-11-19T01:21:34.662Z,1006.95
2017-11-19T01:22:00.807Z,1006.92
2017-11-19T01:22:26.926Z,1006.91
2017-11-19T01:22:53.042Z,1006.9
2017-11-19T01:23:19.172Z,1006.93
2017-11-19T01:23:45.296Z,1006.96
2017-11-19T01:24:11.419Z,1006.94
2017-11-19T01:24:37.573Z,1006.96
2017-11-19T01:25:03.675Z,1006.97
2017-11-19T01:25:29.805Z,1006.94
2017-11-19T01:25:55.924Z,1006.94
2017-11-19T01:26:22.068Z,1006.95
2017-11-19T01:26:48.215Z,1006.93
2017-11-19T01:27:14.331Z,1006.9
2017-11-19T01:27:40.455Z,1006.88
2017-11-19T01:28:06.573Z,1006.87
2017-11-19T01:28:32.706Z,1006.84
2017-11-19T01:28:58.823Z,1006.88
2017-11-19T01:29:24.945Z,1006.82
2017-11-19T01:29:51.082Z,1006.86
2017-11-19T01:30:17.202Z,1006.83
2017-11-19T01:30:43.322Z,1006.84
2017-11-19T01:31:09.461Z,1006.79
2017-11-19T01:31:35.589Z,1006.83
2017-11-19T01:32:01.707Z,1006.8
2017-11-19T01:32:27.830Z,1006.79
2017-11-19T01:32:53.959Z,1006.86
2017-11-19T01:33:20.107Z,1006.82
2017-11-19T01:33:46.217Z,1006.86
2017-11-19T01:34:12.330Z,1006.81
2017-11-19T01:34:38.455Z,1006.82
2017-11-19T01:35:04.569Z,1006.86
2017-11-19T01:35:30.722Z,1006.86
2017-11-19T01:35:56.859Z,1006.83
2017-11-19T01:36:23.003Z,1006.84
2017-11-19T01:36:49.124Z,1006.87
2017-11-19T01:37:15.271Z,1006.87
2017-11-19T01:37:41.389Z,1006.86
2017-11-19T01:38:07.516Z,1006.86
2017-11-19T01:38:33.637Z,1006.87
2017-11-19T01:38:59.758Z,1006.87
2017-11-19T01:39:25.884Z,1006.83
2017-11-19T01:39:52.001Z,1006.84
2017-11-19T01:40:18.118Z,1006.83
2017-11-19T01:40:44.245Z,1006.78
2017-11-19T01:41:10.362Z,1006.82
2017-11-19T01:41:36.487Z,1006.81
2017-11-19T01:42:02.624Z,1006.84
2017-11-19T01:42:28.749Z,1006.86
2017-11-19T01:42:54.872Z,1006.87
2017-11-19T01:43:20.992Z,1006.87
2017-11-19T01:43:47.110Z,1006.88
2017-11-19T01:44:13.241Z,1006.83
2017-11-19T01:44:39.360Z,1006.87
2017-11-19T01:45:05.474Z,1006.89
2017-11-19T01:45:31.599Z,1006.88
2017-11-19T01:45:57.718Z,1006.89
2017-11-19T01:46:23.846Z,1006.89
2017-11-19T01:46:49.962Z,1006.88
2017-11-19T01:47:16.081Z,1006.9
2017-11-19T01:47:42.201Z,1006.91
2017-11-19T01:48:08.350Z,1006.87
2017-11-19T01:48:34.488Z,1006.88
2017-11-19T01:49:00.611Z,1006.91
2017-11-19T01:49:26.725Z,1006.91
2017-11-19T01:49:52.843Z,1006.92
2017-11-19T01:50:18.971Z,1006.9
2017-11-19T01:50:45.097Z,1006.92
2017-11-19T01:51:11.240Z,1006.96
2017-11-19T01:51:37.356Z,1006.94
2017-11-19T01:52:03.476Z,1007
2017-11-19T01:52:29.603Z,1007.05
2017-11-19T01:52:55.719Z,1007.03
2017-11-19T01:53:21.841Z,1007.07
2017-11-19T01:53:47.983Z,1007.03
2017-11-19T01:54:14.087Z,1007.06
2017-11-19T01:54:40.222Z,1006.99
2017-11-19T01:55:06.346Z,1006.98
2017-11-19T01:55:32.458Z,1006.98
2017-11-19T01:55:58.579Z,1007.01
2017-11-19T01:56:24.708Z,1006.96
2017-11-19T01:56:50.825Z,1006.98
2017-11-19T01:57:16.944Z,1007
2017-11-19T01:57:43.070Z,1006.98
2017-11-19T01:58:09.212Z,1006.98
2017-11-19T01:58:35.336Z,1006.97
2017-11-19T01:59:01.452Z,1006.96
2017-11-19T01:59:27.596Z,1006.99
2017-11-19T01:59:53.712Z,1006.96
2017-11-19T02:00:19.843Z,1006.92
2017-11-19T02:00:45.963Z,1006.91
2017-11-19T02:01:12.088Z,1006.93
2017-11-19T02:01:38.202Z,1006.93
2017-11-19T02:02:04.346Z,1006.94
2017-11-19T02:02:30.461Z,1006.92
2017-11-19T02:02:56.582Z,1006.94
2017-11-19T02:03:22.732Z,1006.99
2017-11-19T02:03:48.853Z,1006.94
2017-11-19T02:04:14.969Z,1006.97
2017-11-19T02:04:41.094Z,1006.94
2017-11-19T02:05:07.236Z,1006.99
2017-11-19T02:05:33.379Z,1006.97
2017-11-19T02:05:59.520Z,1006.94
2017-11-19T02:06:25.639Z,1006.99
2017-11-19T02:06:51.764Z,1006.99
2017-11-19T02:07:17.888Z,1006.98
2017-11-19T02:07:44.010Z,1006.97
2017-11-19T02:08:10.150Z,1006.95
2017-11-19T02:08:36.283Z,1006.95
2017-11-19T02:09:02.400Z,1006.95
2017-11-19T02:09:28.527Z,1006.93
2017-11-19T02:09:54.638Z,1006.95
2017-11-19T02:10:20.793Z,1006.9
2017-11-19T02:10:46.911Z,1006.83
2017-11-19T02:11:13.038Z,1006.93
2017-11-19T02:11:39.163Z,1006.91
2017-11-19T02:12:05.278Z,1006.94
2017-11-19T02:12:31.398Z,1006.91
2017-11-19T02:12:57.519Z,1006.92
2017-11-19T02:13:23.640Z,1006.94
2017-11-19T02:13:49.768Z,1006.94
2017-11-19T02:14:15.907Z,1006.91
2017-11-19T02:14:42.024Z,1006.92
2017-11-19T02:15:08.140Z,1006.91
2017-11-19T02:15:34.286Z,1006.94
2017-11-19T02:16:00.410Z,1006.92
2017-11-19T02:16:26.544Z,1006.97
2017-11-19T02:16:52.675Z,1006.96
2017-11-19T02:17:18.811Z,1006.95
2017-11-19T02:17:44.939Z,1006.94
2017-11-19T02:18:11.070Z,1006.94
2017-11-19T02:18:37.203Z,1006.93
2017-11-19T02:19:03.335Z,1006.91
2017-11-19T02:19:29.455Z,1006.93
2017-11-19T02:19:55.597Z,1006.92
2017-11-19T02:20:21.716Z,1006.91
2017-11-19T02:20:47.851Z,1006.91
2017-11-19T02:21:13.983Z,1006.91
2017-11-19T02:21:40.104Z,1006.93
2017-11-19T02:22:06.227Z,1006.93
2017-11-19T02:22:32.367Z,1006.91
2017-11-19T02:22:58.501Z,1006.87
2017-11-19T02:23:24.609Z,1006.93
2017-11-19T02:23:50.735Z,1006.88
2017-11-19T02:24:16.852Z,1006.92
2017-11-19T02:24:42.977Z,1006.91
2017-11-19T02:25:09.094Z,1006.93
2017-11-19T02:25:35.233Z,1006.9
2017-11-19T02:26:01.361Z,1006.9
2017-11-19T02:26:27.518Z,1006.92
2017-11-19T02:26:53.597Z,1006.91
2017-11-19T02:27:19.716Z,1006.95
2017-11-19T02:27:45.840Z,1006.9
2017-11-19T02:28:11.966Z,1006.92
2017-11-19T02:28:38.112Z,1006.91
2017-11-19T02:29:04.267Z,1006.88
2017-11-19T02:29:30.387Z,1006.89
2017-11-19T02:29:56.509Z,1006.92
2017-11-19T02:30:22.644Z,1006.9
2017-11-19T02:30:48.771Z,1006.93
2017-11-19T02:31:14.888Z,1006.91
2017-11-19T02:31:41.014Z,1006.87
2017-11-19T02:32:07.128Z,1006.88
2017-11-19T02:32:33.248Z,1006.85
2017-11-19T02:32:59.387Z,1006.86
2017-11-19T02:33:25.509Z,1006.87
2017-11-19T02:33:51.624Z,1006.86
2017-11-19T02:34:17.760Z,1006.93
2017-11-19T02:34:43.877Z,1006.85
2017-11-19T02:35:09.996Z,1006.88
2017-11-19T02:35:36.143Z,1006.86
2017-11-19T02:36:02.274Z,1006.88
2017-11-19T02:36:28.412Z,1006.85
2017-11-19T02:36:54.532Z,1006.83
2017-11-19T02:37:20.651Z,1006.84
2017-11-19T02:37:46.801Z,1006.86
2017-11-19T02:38:12.918Z,1006.88
2017-11-19T02:38:39.033Z,1006.85
2017-11-19T02:39:05.158Z,1006.87
2017-11-19T02:39:31.293Z,1006.87
2017-11-19T02:39:57.434Z,1006.9
2017-11-19T02:40:23.548Z,1006.87
2017-11-19T02:40:49.671Z,1006.86
2017-11-19T02:41:15.791Z,1006.86
2017-11-19T02:41:41.924Z,1006.84
2017-11-19T02:42:08.043Z,1006.85
2017-11-19T02:42:34.185Z,1006.9
2017-11-19T02:43:00.332Z,1006.88
2017-11-19T02:43:26.449Z,1006.9
2017-11-19T02:43:52.590Z,1006.92
2017-11-19T02:44:18.707Z,1006.9
2017-11-19T02:44:44.829Z,1006.87
2017-11-19T02:45:10.947Z,1006.91
2017-11-19T02:45:37.076Z,1006.89
2017-11-19T02:46:03.196Z,1006.85
2017-11-19T02:46:29.310Z,1006.91
2017-11-19T02:46:55.435Z,1006.92
2017-11-19T02:47:21.557Z,1006.9
2017-11-19T02:47:47.717Z,1006.92
2017-11-19T02:48:13.862Z,1006.92
2017-11-19T02:48:39.977Z,1006.9
2017-11-19T02:49:06.103Z,1006.88
2017-11-19T02:49:32.222Z,1006.88
2017-11-19T02:49:58.339Z,1006.86
2017-11-19T02:50:24.465Z,1006.88
2017-11-19T02:50:50.612Z,1006.88
2017-11-19T02:51:16.727Z,1006.86
2017-11-19T02:51:42.847Z,1006.88
2017-11-19T02:52:08.973Z,1006.84
2017-11-19T02:52:35.090Z,1006.84
2017-11-19T02:53:01.216Z,1006.82
2017-11-19T02:53:27.330Z,1006.85
2017-11-19T02:53:53.459Z,1006.81
2017-11-19T02:54:19.583Z,1006.82
2017-11-19T02:54:45.700Z,1006.82
2017-11-19T02:55:11.827Z,1006.84
2017-11-19T02:55:37.943Z,1006.88
2017-11-19T02:56:04.062Z,1006.87
2017-11-19T02:56:30.180Z,1006.88
2017-11-19T02:56:56.317Z,1006.94
2017-11-19T02:57:22.426Z,1006.89
2017-11-19T02:57:48.547Z,1006.9
2017-11-19T02:58:14.672Z,1006.82
2017-11-19T02:58:40.802Z,1006.86
2017-11-19T02:59:06.957Z,1006.82
2017-11-19T02:59:33.054Z,1006.83
2017-11-19T02:59:59.176Z,1006.81
2017-11-19T03:00:25.292Z,1006.81
2017-11-19T03:00:51.419Z,1006.78
2017-11-19T03:01:17.540Z,1006.84
2017-11-19T03:01:43.678Z,1006.83
2017-11-19T03:02:09.795Z,1006.88
2017-11-19T03:02:35.926Z,1006.83
2017-11-19T03:03:02.047Z,1006.81
2017-11-19T03:03:28.168Z,1006.82
2017-11-19T03:03:54.277Z,1006.84
2017-11-19T03:04:20.400Z,1006.82
2017-11-19T03:04:46.525Z,1006.78
2017-11-19T03:05:12.641Z,1006.82
2017-11-19T03:05:38.759Z,1006.79
2017-11-19T03:06:04.888Z,1006.82
2017-11-19T03:06:31.005Z,1006.82
2017-11-19T03:06:57.133Z,1006.79
2017-11-19T03:07:23.248Z,1006.77
2017-11-19T03:07:49.390Z,1006.8
2017-11-19T03:08:15.515Z,1006.79
2017-11-19T03:08:41.628Z,1006.81
2017-11-19T03:09:07.742Z,1006.77
2017-11-19T03:09:33.870Z,1006.78
2017-11-19T03:09:59.998Z,1006.78
2017-11-19T03:10:26.122Z,1006.82
2017-11-19T03:10:52.238Z,1006.83
2017-11-19T03:11:18.362Z,1006.8
2017-11-19T03:11:44.493Z,1006.8
2017-11-19T03:12:10.600Z,1006.82
2017-11-19T03:12:36.719Z,1006.85
2017-11-19T03:13:02.845Z,1006.85
2017-11-19T03:13:28.971Z,1006.81
2017-11-19T03:13:55.082Z,1006.83
2017-11-19T03:14:21.236Z,1006.84
2017-11-19T03:14:47.317Z,1006.83
2017-11-19T03:15:13.444Z,1006.82
2017-11-19T03:15:39.570Z,1006.81
2017-11-19T03:16:05.701Z,1006.77
2017-11-19T03:16:31.817Z,1006.79
2017-11-19T03:16:57.937Z,1006.74
2017-11-19T03:17:24.059Z,1006.76
2017-11-19T03:17:50.177Z,1006.72
2017-11-19T03:18:16.305Z,1006.69
2017-11-19T03:18:42.428Z,1006.71
2017-11-19T03:19:08.545Z,1006.72
2017-11-19T03:19:34.672Z,1006.72
2017-11-19T03:20:00.795Z,1006.73
2017-11-19T03:20:26.907Z,1006.74
2017-11-19T03:20:53.062Z,1006.73
2017-11-19T03:21:19.174Z,1006.8
2017-11-19T03:21:45.298Z,1006.76
2017-11-19T03:22:11.421Z,1006.75
2017-11-19T03:22:37.560Z,1006.74
2017-11-19T03:23:03.682Z,1006.76
2017-11-19T03:23:29.799Z,1006.72
2017-11-19T03:23:55.927Z,1006.78
2017-11-19T03:24:22.064Z,1006.76
2017-11-19T03:24:48.185Z,1006.8
2017-11-19T03:25:14.305Z,1006.79
2017-11-19T03:25:40.426Z,1006.75
2017-11-19T03:26:06.543Z,1006.74
2017-11-19T03:26:32.661Z,1006.78
2017-11-19T03:26:58.794Z,1006.75
2017-11-19T03:27:24.919Z,1006.74
2017-11-19T03:27:51.042Z,1006.78
2017-11-19T03:28:17.157Z,1006.75
2017-11-19T03:28:43.277Z,1006.78
2017-11-19T03:29:09.404Z,1006.7
2017-11-19T03:29:35.527Z,1006.76
2017-11-19T03:30:01.644Z,1006.72
2017-11-19T03:30:27.775Z,1006.75
2017-11-19T03:30:53.895Z,1006.73
2017-11-19T03:31:20.032Z,1006.75
2017-11-19T03:31:46.152Z,1006.69
2017-11-19T03:32:12.293Z,1006.73
2017-11-19T03:32:38.417Z,1006.75
2017-11-19T03:33:04.535Z,1006.65
2017-11-19T03:33:30.676Z,1006.66
2017-11-19T03:33:56.810Z,1006.71
2017-11-19T03:34:22.928Z,1006.69
2017-11-19T03:34:49.056Z,1006.66
2017-11-19T03:35:15.186Z,1006.67
2017-11-19T03:35:41.311Z,1006.68
2017-11-19T03:36:07.441Z,1006.67
2017-11-19T03:36:33.571Z,1006.71
2017-11-19T03:36:59.706Z,1006.68
2017-11-19T03:37:25.823Z,1006.69
2017-11-19T03:37:52.052Z,1006.72
2017-11-19T03:38:18.170Z,1006.74
2017-11-19T03:38:44.294Z,1006.76
2017-11-19T03:39:10.468Z,1006.69
2017-11-19T03:39:37.203Z,1006.73
2017-11-19T03:40:03.824Z,1006.78
2017-11-19T03:40:30.076Z,1006.72
2017-11-19T03:40:56.193Z,1006.72
2017-11-19T03:41:22.312Z,1006.74
2017-11-19T03:41:48.438Z,1006.73
2017-11-19T03:42:14.582Z,1006.74
2017-11-19T03:42:40.706Z,1006.77
2017-11-19T03:43:06.863Z,1006.76
2017-11-19T03:43:33.000Z,1006.73
2017-11-19T03:43:59.135Z,1006.71
2017-11-19T03:44:25.254Z,1006.7
2017-11-19T03:44:51.429Z,1006.74
2017-11-19T03:45:17.550Z,1006.77
2017-11-19T03:45:43.666Z,1006.73
2017-11-19T03:46:09.798Z,1006.7
2017-11-19T03:46:35.943Z,1006.74
2017-11-19T03:47:02.069Z,1006.74
2017-11-19T03:47:28.190Z,1006.71
2017-11-19T03:47:54.306Z,1006.74
2017-11-19T03:48:20.430Z,1006.72
2017-11-19T03:48:46.546Z,1006.74
2017-11-19T03:49:12.694Z,1006.76
2017-11-19T03:49:38.846Z,1006.74
2017-11-19T03:50:05.000Z,1006.83
2017-11-19T03:50:31.133Z,1006.79
2017-11-19T03:50:57.290Z,1006.78
2017-11-19T03:51:23.425Z,1006.8
2017-11-19T03:51:49.581Z,1006.81
2017-11-19T03:52:16.346Z,1006.84
2017-11-19T03:52:42.518Z,1006.8
2017-11-19T03:53:08.589Z,1006.81
2017-11-19T03:53:34.714Z,1006.82
2017-11-19T03:54:00.843Z,1006.83
2017-11-19T03:54:27.045Z,1006.76
2017-11-19T03:54:53.175Z,1006.77
2017-11-19T03:55:19.294Z,1006.79
2017-11-19T03:55:45.420Z,1006.81
2017-11-19T03:56:11.537Z,1006.75
2017-11-19T03:56:37.662Z,1006.77
2017-11-19T03:57:03.787Z,1006.79
2017-11-19T03:57:29.927Z,1006.78
2017-11-19T03:57:56.040Z,1006.83
2017-11-19T03:58:22.149Z,1006.76
2017-11-19T03:58:48.276Z,1006.81
2017-11-19T03:59:14.396Z,1006.8
2017-11-19T03:59:40.571Z,1006.77
2017-11-19T04:00:06.716Z,1006.79
2017-11-19T04:00:33.021Z,1006.81
2017-11-19T04:00:59.138Z,1006.78
2017-11-19T04:01:25.266Z,1006.8
2017-11-19T04:01:51.385Z,1006.8
2017-11-19T04:02:17.513Z,1006.82
2017-11-19T04:02:43.630Z,1006.87
2017-11-19T04:03:09.746Z,1006.88
2017-11-19T04:03:35.894Z,1006.83
2017-11-19T04:04:02.047Z,1006.86
2017-11-19T04:04:28.161Z,1006.85
2017-11-19T04:04:54.301Z,1006.9
2017-11-19T04:05:20.429Z,1006.85
2017-11-19T04:05:46.543Z,1006.83
2017-11-19T04:06:12.673Z,1006.83
2017-11-19T04:06:38.801Z,1006.84
2017-11-19T04:07:04.938Z,1006.81
2017-11-19T04:07:31.059Z,1006.79
2017-11-19T04:07:57.179Z,1006.8
2017-11-19T04:08:23.306Z,1006.83
2017-11-19T04:08:49.425Z,1006.85
2017-11-19T04:09:15.552Z,1006.85
2017-11-19T04:09:41.677Z,1006.83
2017-11-19T04:10:07.795Z,1006.87
2017-11-19T04:10:33.913Z,1006.8
2017-11-19T04:11:00.038Z,1006.87
2017-11-19T04:11:26.157Z,1006.84
2017-11-19T04:11:52.274Z,1006.85
2017-11-19T04:12:18.392Z,1006.84
2017-11-19T04:12:44.516Z,1006.84
2017-11-19T04:13:10.653Z,1006.86
2017-11-19T04:13:36.785Z,1006.8
2017-11-19T04:14:02.905Z,1006.83
2017-11-19T04:14:29.023Z,1006.88
2017-11-19T04:14:55.144Z,1006.86
2017-11-19T04:15:21.267Z,1006.87
2017-11-19T04:15:47.394Z,1006.91
2017-11-19T04:16:13.514Z,1006.93
2017-11-19T04:16:39.638Z,1006.91
2017-11-19T04:17:05.760Z,1006.94
2017-11-19T04:17:31.903Z,1006.91
2017-11-19T04:17:58.026Z,1006.91
2017-11-19T04:18:24.177Z,1006.9
2017-11-19T04:18:50.289Z,1006.92
2017-11-19T04:19:16.435Z,1006.92
2017-11-19T04:19:42.560Z,1006.91
2017-11-19T04:20:08.674Z,1006.89
2017-11-19T04:20:34.800Z,1006.9
2017-11-19T04:21:00.924Z,1006.88
2017-11-19T04:21:27.048Z,1006.9
2017-11-19T04:21:53.191Z,1006.88
2017-11-19T04:22:19.310Z,1006.92
2017-11-19T04:22:45.428Z,1006.89
2017-11-19T04:23:11.555Z,1006.94
2017-11-19T04:23:37.675Z,1006.93
2017-11-19T04:24:03.798Z,1006.94
2017-11-19T04:24:29.944Z,1006.97
2017-11-19T04:24:56.064Z,1006.95
2017-11-19T04:25:22.185Z,1006.94
2017-11-19T04:25:48.313Z,1006.97
2017-11-19T04:26:14.436Z,1007.03
2017-11-19T04:26:40.549Z,1007.01
2017-11-19T04:27:06.675Z,1007.03
2017-11-19T04:27:32.801Z,1007
2017-11-19T04:27:58.913Z,1006.98
2017-11-19T04:28:25.050Z,1006.99
2017-11-19T04:28:51.186Z,1006.97
2017-11-19T04:29:17.350Z,1006.97
2017-11-19T04:29:43.477Z,1006.93
2017-11-19T04:30:09.598Z,1006.94
2017-11-19T04:30:35.732Z,1006.93
2017-11-19T04:31:01.850Z,1006.98
2017-11-19T04:31:27.994Z,1006.97
2017-11-19T04:31:54.134Z,1006.99
2017-11-19T04:32:20.260Z,1006.96
2017-11-19T04:32:46.377Z,1006.98
2017-11-19T04:33:12.502Z,1006.96
2017-11-19T04:33:38.625Z,1006.93
2017-11-19T04:34:04.741Z,1006.9
2017-11-19T04:34:30.860Z,1006.9
2017-11-19T04:34:56.986Z,1006.93
2017-11-19T04:35:23.102Z,1006.93
2017-11-19T04:35:49.223Z,1006.91
2017-11-19T04:36:15.349Z,1006.9
2017-11-19T04:36:41.466Z,1006.91
2017-11-19T04:37:07.589Z,1006.88
2017-11-19T04:37:33.717Z,1006.9
2017-11-19T04:37:59.847Z,1006.88
2017-11-19T04:38:25.963Z,1006.85
2017-11-19T04:38:52.076Z,1006.86
2017-11-19T04:39:18.200Z,1006.88
2017-11-19T04:39:44.325Z,1006.91
2017-11-19T04:40:10.441Z,1006.9
2017-11-19T04:40:36.568Z,1006.89
2017-11-19T04:41:02.683Z,1006.87
2017-11-19T04:41:28.816Z,1006.89
2017-11-19T04:41:54.936Z,1006.91
2017-11-19T04:42:21.054Z,1006.91
2017-11-19T04:42:47.181Z,1006.9
2017-11-19T04:43:13.296Z,1006.89
2017-11-19T04:43:39.415Z,1006.93
2017-11-19T04:44:05.541Z,1006.94
2017-11-19T04:44:31.684Z,1006.9
2017-11-19T04:44:57.800Z,1006.9
2017-11-19T04:45:23.928Z,1006.92
2017-11-19T04:45:50.053Z,1006.93
2017-11-19T04:46:16.174Z,1006.93
2017-11-19T04:46:42.299Z,1006.98
2017-11-19T04:47:08.415Z,1006.94
2017-11-19T04:47:34.540Z,1006.98
2017-11-19T04:48:00.662Z,1006.97
2017-11-19T04:48:26.778Z,1007
2017-11-19T04:48:52.913Z,1007.02
2017-11-19T04:49:19.047Z,1007.03
2017-11-19T04:49:45.164Z,1006.97
2017-11-19T04:50:11.290Z,1007.02
2017-11-19T04:50:37.407Z,1007.04
2017-11-19T04:51:03.534Z,1007.05
2017-11-19T04:51:29.649Z,1007.01
2017-11-19T04:51:55.767Z,1007.03
2017-11-19T04:52:21.917Z,1007.03
2017-11-19T04:52:48.031Z,1007.04
2017-11-19T04:53:14.154Z,1007.03
2017-11-19T04:53:40.278Z,1006.97
2017-11-19T04:54:06.393Z,1007.04
2017-11-19T04:54:32.514Z,1007.05
2017-11-19T04:54:58.639Z,1007.02
2017-11-19T04:55:24.781Z,1007.03
2017-11-19T04:55:50.900Z,1007.04
2017-11-19T04:56:17.022Z,1007.05
2017-11-19T04:56:43.138Z,1007.06
2017-11-19T04:57:09.262Z,1007.08
2017-11-19T04:57:35.401Z,1007.02
2017-11-19T04:58:01.540Z,1007.07
2017-11-19T04:58:27.662Z,1007.03
2017-11-19T04:58:53.797Z,1006.98
2017-11-19T04:59:19.924Z,1007.02
2017-11-19T04:59:46.047Z,1006.95
2017-11-19T05:00:12.164Z,1007
2017-11-19T05:00:38.289Z,1006.98
2017-11-19T05:01:04.412Z,1006.96
2017-11-19T05:01:30.532Z,1006.96
2017-11-19T05:01:56.655Z,1006.93
2017-11-19T05:02:22.792Z,1006.93
2017-11-19T05:02:48.928Z,1006.92
2017-11-19T05:03:15.065Z,1006.96
2017-11-19T05:03:41.184Z,1007
2017-11-19T05:04:07.299Z,1006.91
2017-11-19T05:04:33.425Z,1006.97
2017-11-19T05:04:59.546Z,1007.01
2017-11-19T05:05:25.667Z,1006.95
2017-11-19T05:05:51.791Z,1006.96
2017-11-19T05:06:17.922Z,1006.94
2017-11-19T05:06:44.037Z,1006.93
2017-11-19T05:07:10.162Z,1006.97
2017-11-19T05:07:36.309Z,1006.97
2017-11-19T05:08:02.444Z,1006.99
2017-11-19T05:08:28.571Z,1006.94
2017-11-19T05:08:54.692Z,1006.98
2017-11-19T05:09:20.815Z,1006.96
2017-11-19T05:09:46.932Z,1007.02
2017-11-19T05:10:13.078Z,1006.96
2017-11-19T05:10:39.205Z,1006.98
2017-11-19T05:11:05.318Z,1006.98
2017-11-19T05:11:31.444Z,1006.95
2017-11-19T05:11:57.558Z,1006.96
2017-11-19T05:12:23.686Z,1006.92
2017-11-19T05:12:49.807Z,1006.93
2017-11-19T05:13:15.955Z,1006.99
2017-11-19T05:13:42.064Z,1007
2017-11-19T05:14:08.191Z,1006.97
2017-11-19T05:14:34.317Z,1006.94
2017-11-19T05:15:00.434Z,1006.95
2017-11-19T05:15:26.562Z,1006.91
2017-11-19T05:15:52.681Z,1006.92
2017-11-19T05:16:18.800Z,1006.96
2017-11-19T05:16:44.926Z,1006.91
2017-11-19T05:17:11.044Z,1006.86